createdAt,value
2023-09-08T00:00:10.431Z,4.15
2023-09-08T00:02:30.989Z,4.70
2023-09-08T00:04:52.151Z,4.75
2023-09-08T00:07:12.837Z,4.90
2023-09-08T00:09:33.506Z,4.65
2023-09-08T00:11:55.440Z,5.13
2023-09-08T00:14:16.101Z,5.05
2023-09-08T00:16:36.648Z,4.93
2023-09-08T00:18:59.487Z,4.72
2023-09-08T00:21:20.040Z,4.72
2023-09-08T00:23:40.503Z,4.43
2023-09-08T00:26:01.288Z,5.57
2023-09-08T00:28:21.780Z,4.47
2023-09-08T00:30:42.152Z,5.22
2023-09-08T00:33:02.843Z,4.80
2023-09-08T00:35:23.890Z,4.47
2023-09-08T00:37:44.576Z,4.97
2023-09-08T00:40:05.359Z,4.90
2023-09-08T00:42:25.880Z,4.53
2023-09-08T00:44:46.400Z,5.03
2023-09-08T00:47:07.249Z,4.90
2023-09-08T00:49:27.651Z,5.13
2023-09-08T00:51:48.456Z,5.18
2023-09-08T00:54:09.395Z,5.47
2023-09-08T00:56:30.983Z,4.55
2023-09-08T00:58:51.623Z,4.78
2023-09-08T01:01:12.295Z,5.05
2023-09-08T01:03:32.905Z,4.78
2023-09-08T01:05:54.035Z,4.90
2023-09-08T01:08:16.029Z,5.03
2023-09-08T01:10:38.281Z,4.32
2023-09-08T01:12:59.461Z,4.57
2023-09-08T01:15:20.479Z,5.38
2023-09-08T01:17:41.516Z,4.07
2023-09-08T01:20:23.698Z,4.55
2023-09-08T01:23:02.515Z,5.03
2023-09-08T01:25:24.343Z,4.63
2023-09-08T01:27:49.730Z,4.57
2023-09-08T01:32:33.663Z,4.38
2023-09-08T01:34:54.589Z,3.65
2023-09-08T01:37:15.324Z,5.07
2023-09-08T01:39:36.841Z,4.53
2023-09-08T01:41:57.336Z,4.57
2023-09-08T01:44:18.100Z,4.82
2023-09-08T01:46:39.764Z,3.63
2023-09-08T01:49:00.569Z,4.10
2023-09-08T01:51:21.223Z,5.20
2023-09-08T01:53:41.635Z,4.63
2023-09-08T01:56:02.196Z,3.92
2023-09-08T01:58:22.828Z,4.35
2023-09-08T02:00:43.569Z,4.07
2023-09-08T02:03:05.026Z,4.50
2023-09-08T02:05:26.888Z,4.47
2023-09-08T02:07:47.516Z,4.28
2023-09-08T02:10:08.578Z,4.13
2023-09-08T02:12:29.457Z,4.35
2023-09-08T02:14:49.882Z,4.40
2023-09-08T02:17:10.867Z,4.60
2023-09-08T02:19:31.333Z,4.40
2023-09-08T02:21:52.191Z,4.45
2023-09-08T02:24:13.081Z,4.65
2023-09-08T02:26:34.905Z,4.32
2023-09-08T02:28:55.298Z,4.60
2023-09-08T02:31:15.653Z,4.20
2023-09-08T02:33:36.179Z,4.38
2023-09-08T02:35:56.590Z,4.63
2023-09-08T02:38:17.050Z,4.70
2023-09-08T02:40:37.650Z,5.55
2023-09-08T02:42:58.552Z,4.38
2023-09-08T02:45:19.098Z,4.97
2023-09-08T02:47:39.606Z,4.43
2023-09-08T02:50:00.419Z,6.18
2023-09-08T02:52:20.886Z,5.65
2023-09-08T02:54:41.768Z,3.92
2023-09-08T02:57:02.103Z,5.03
2023-09-08T02:59:22.557Z,5.07
2023-09-08T03:01:43.145Z,3.80
2023-09-08T03:04:03.853Z,4.40
2023-09-08T03:06:24.536Z,4.82
2023-09-08T03:08:44.977Z,4.35
2023-09-08T03:11:06.566Z,4.97
2023-09-08T03:13:27.312Z,4.30
2023-09-08T03:15:47.809Z,5.95
2023-09-08T03:18:08.194Z,3.90
2023-09-08T03:20:29.828Z,5.03
2023-09-08T03:22:50.412Z,5.13
2023-09-08T03:25:10.992Z,4.28
2023-09-08T03:27:32.714Z,3.72
2023-09-08T03:29:53.174Z,4.72
2023-09-08T03:32:13.748Z,5.03
2023-09-08T03:34:35.092Z,5.05
2023-09-08T03:36:55.818Z,5.68
2023-09-08T03:39:16.846Z,4.75
2023-09-08T03:41:37.680Z,5.47
2023-09-08T03:43:58.299Z,5.47
2023-09-08T03:46:19.279Z,4.43
2023-09-08T03:48:40.166Z,4.22
2023-09-08T03:51:00.812Z,5.03
2023-09-08T03:53:21.326Z,4.75
2023-09-08T03:55:41.935Z,5.25
2023-09-08T03:58:02.558Z,5.68
2023-09-08T04:00:23.546Z,4.40
2023-09-08T04:02:44.332Z,4.43
2023-09-08T04:05:05.532Z,5.40
2023-09-08T04:07:26.141Z,6.10
2023-09-08T04:09:46.697Z,4.75
2023-09-08T04:12:10.340Z,4.60
2023-09-08T04:14:31.517Z,4.88
2023-09-08T04:16:52.051Z,5.53
2023-09-08T04:19:12.558Z,4.95
2023-09-08T04:21:33.128Z,5.57
2023-09-08T04:23:53.662Z,5.57
2023-09-08T04:26:14.483Z,5.45
2023-09-08T04:28:35.334Z,5.40
2023-09-08T04:30:55.995Z,5.85
2023-09-08T04:33:16.617Z,4.82
2023-09-08T04:35:37.022Z,5.13
2023-09-08T04:37:57.577Z,6.65
2023-09-08T04:40:18.146Z,6.10
2023-09-08T04:42:38.764Z,6.18
2023-09-08T04:44:59.542Z,5.05
2023-09-08T04:47:20.011Z,6.07
2023-09-08T04:49:40.626Z,5.80
2023-09-08T04:52:01.471Z,5.22
2023-09-08T04:54:23.452Z,6.53
2023-09-08T04:56:44.153Z,5.53
2023-09-08T04:59:04.791Z,5.22
2023-09-08T05:01:25.888Z,5.10
2023-09-08T05:03:46.532Z,5.80
2023-09-08T05:06:07.383Z,6.35
2023-09-08T05:08:28.366Z,6.68
2023-09-08T05:10:49.352Z,5.50
2023-09-08T05:13:17.152Z,5.78
2023-09-08T05:15:50.088Z,6.40
2023-09-08T05:18:10.966Z,6.25
2023-09-08T05:20:31.717Z,6.95
2023-09-08T05:22:52.530Z,5.68
2023-09-08T05:25:13.163Z,5.80
2023-09-08T05:27:33.829Z,6.10
2023-09-08T05:29:54.376Z,6.28
2023-09-08T05:32:15.254Z,6.22
2023-09-08T05:34:35.555Z,5.85
2023-09-08T05:36:56.047Z,7.13
2023-09-08T05:39:18.669Z,7.18
2023-09-08T05:41:39.482Z,6.35
2023-09-08T05:44:00.103Z,5.70
2023-09-08T05:46:21.156Z,5.85
2023-09-08T05:48:42.003Z,6.32
2023-09-08T05:51:03.487Z,6.18
2023-09-08T05:53:24.283Z,6.40
2023-09-08T05:55:44.943Z,6.75
2023-09-08T05:58:07.352Z,6.93
2023-09-08T06:00:28.181Z,6.15
2023-09-08T06:02:48.911Z,6.55
2023-09-08T06:05:09.806Z,6.28
2023-09-08T06:07:30.808Z,8.25
2023-09-08T06:09:51.286Z,7.40
2023-09-08T06:12:11.670Z,7.13
2023-09-08T06:14:32.130Z,8.10
2023-09-08T06:16:52.663Z,6.57
2023-09-08T06:19:13.533Z,7.40
2023-09-08T06:21:34.629Z,7.30
2023-09-08T06:23:55.360Z,7.10
2023-09-08T06:26:16.102Z,7.40
2023-09-08T06:28:36.976Z,7.25
2023-09-08T06:30:58.232Z,5.78
2023-09-08T06:33:19.261Z,6.63
2023-09-08T06:35:40.274Z,6.80
2023-09-08T06:38:01.631Z,5.72
2023-09-08T06:40:22.328Z,6.15
2023-09-08T06:42:42.972Z,6.43
2023-09-08T06:45:03.648Z,6.97
2023-09-08T06:47:24.393Z,6.88
2023-09-08T06:49:44.940Z,7.30
2023-09-08T06:52:06.073Z,6.60
2023-09-08T06:54:26.703Z,7.25
2023-09-08T06:56:47.335Z,6.75
2023-09-08T06:59:07.895Z,7.28
2023-09-08T07:01:29.234Z,7.47
2023-09-08T07:03:49.933Z,6.20
2023-09-08T07:06:10.878Z,7.93
2023-09-08T07:08:31.376Z,7.38
2023-09-08T07:10:54.229Z,7.18
2023-09-08T07:13:14.954Z,6.35
2023-09-08T07:15:35.353Z,6.07
2023-09-08T07:17:56.033Z,6.38
2023-09-08T07:20:17.154Z,6.57
2023-09-08T07:22:38.601Z,6.50
2023-09-08T07:24:59.217Z,6.88
2023-09-08T07:27:21.294Z,6.70
2023-09-08T07:29:42.609Z,6.55
2023-09-08T07:32:03.864Z,6.55
2023-09-08T07:34:24.364Z,6.63
2023-09-08T07:36:44.872Z,6.20
2023-09-08T07:39:05.490Z,6.15
2023-09-08T07:41:26.334Z,5.47
2023-09-08T07:43:47.163Z,6.03
2023-09-08T07:46:08.384Z,6.13
2023-09-08T07:48:29.194Z,6.03
2023-09-08T07:50:50.005Z,5.95
2023-09-08T07:53:10.615Z,5.93
2023-09-08T07:55:31.277Z,5.65
2023-09-08T07:57:52.280Z,6.47
2023-09-08T08:00:14.013Z,5.75
2023-09-08T08:02:34.675Z,6.50
2023-09-08T08:04:55.194Z,6.20
2023-09-08T08:07:15.856Z,6.30
2023-09-08T08:09:36.694Z,6.75
2023-09-08T08:11:57.322Z,6.45
2023-09-08T08:14:18.179Z,6.00
2023-09-08T08:16:38.778Z,6.50
2023-09-08T08:19:00.612Z,7.45
2023-09-08T08:21:23.778Z,6.15
2023-09-08T08:23:44.901Z,6.38
2023-09-08T08:26:05.756Z,6.20
2023-09-08T08:28:26.655Z,6.28
2023-09-08T08:30:49.287Z,5.25
2023-09-08T08:33:10.363Z,5.18
2023-09-08T08:35:31.173Z,6.75
2023-09-08T08:37:51.829Z,6.25
2023-09-08T08:40:13.824Z,6.07
2023-09-08T08:42:34.779Z,6.28
2023-09-08T08:44:57.064Z,7.05
2023-09-08T08:47:18.084Z,6.07
2023-09-08T08:49:42.078Z,6.75
2023-09-08T08:52:08.092Z,6.10
2023-09-08T08:54:29.519Z,5.70
2023-09-08T08:56:50.372Z,5.97
2023-09-08T08:59:12.287Z,5.22
2023-09-08T09:01:33.879Z,6.05
2023-09-08T09:03:54.556Z,5.95
2023-09-08T09:06:15.953Z,6.93
2023-09-08T09:08:39.789Z,5.95
2023-09-08T09:11:00.707Z,5.72
2023-09-08T09:13:21.203Z,5.97
2023-09-08T09:15:41.940Z,5.70
2023-09-08T09:18:07.198Z,5.65
2023-09-08T09:20:27.930Z,5.45
2023-09-08T09:22:50.219Z,5.22
2023-09-08T09:25:11.907Z,5.72
2023-09-08T09:27:32.776Z,5.40
2023-09-08T09:29:53.653Z,6.22
2023-09-08T09:32:15.193Z,5.55
2023-09-08T09:34:36.222Z,5.18
2023-09-08T09:36:57.144Z,5.43
2023-09-08T09:39:19.576Z,5.32
2023-09-08T09:41:41.447Z,5.18
2023-09-08T09:44:02.205Z,5.07
2023-09-08T09:46:23.099Z,5.78
2023-09-08T09:48:43.897Z,5.50
2023-09-08T09:51:21.012Z,5.72
2023-09-08T09:53:43.493Z,5.45
2023-09-08T09:56:04.380Z,4.90
2023-09-08T09:58:26.238Z,5.10
2023-09-08T10:00:49.758Z,4.85
2023-09-08T10:03:12.439Z,5.38
2023-09-08T10:05:34.686Z,5.60
2023-09-08T10:07:55.222Z,4.80
2023-09-08T10:10:17.135Z,5.25
2023-09-08T10:12:38.926Z,4.80
2023-09-08T10:15:00.466Z,5.10
2023-09-08T10:17:29.625Z,6.15
2023-09-08T10:19:52.950Z,5.18
2023-09-08T10:22:20.491Z,5.32
2023-09-08T10:24:42.029Z,5.20
2023-09-08T10:27:09.542Z,5.13
2023-09-08T10:29:32.238Z,5.07
2023-09-08T10:31:52.840Z,6.00
2023-09-08T10:34:14.313Z,5.22
2023-09-08T10:36:36.876Z,4.93
2023-09-08T10:39:43.103Z,5.15
2023-09-08T10:42:30.440Z,4.75
2023-09-08T10:44:58.078Z,4.88
2023-09-08T10:47:25.397Z,5.55
2023-09-08T10:49:46.622Z,5.05
2023-09-08T10:52:12.929Z,5.43
2023-09-08T10:54:43.406Z,5.55
2023-09-08T10:57:13.567Z,5.82
2023-09-08T10:59:39.782Z,4.80
2023-09-08T11:02:04.613Z,4.88
2023-09-08T11:04:26.323Z,4.57
2023-09-08T11:06:47.149Z,5.05
2023-09-08T11:09:08.876Z,4.68
2023-09-08T11:11:34.450Z,4.55
2023-09-08T11:13:54.992Z,5.43
2023-09-08T11:16:17.056Z,4.70
2023-09-08T11:18:38.634Z,4.68
2023-09-08T11:21:01.365Z,4.38
2023-09-08T11:23:23.222Z,4.63
2023-09-08T11:25:43.958Z,5.03
2023-09-08T11:28:05.064Z,5.55
2023-09-08T11:30:26.615Z,4.47
2023-09-08T11:32:47.585Z,4.88
2023-09-08T11:35:10.771Z,4.78
2023-09-08T11:37:31.362Z,4.55
2023-09-08T11:39:51.879Z,4.55
2023-09-08T11:42:16.818Z,5.25
2023-09-08T11:44:38.314Z,4.40
2023-09-08T11:46:58.896Z,5.25
2023-09-08T11:49:21.713Z,5.22
2023-09-08T11:51:44.321Z,4.88
2023-09-08T11:54:05.227Z,4.55
2023-09-08T11:56:26.586Z,5.00
2023-09-08T11:58:48.222Z,5.32
2023-09-08T12:01:09.181Z,5.65
2023-09-08T12:03:29.889Z,5.43
2023-09-08T12:05:54.023Z,4.95
2023-09-08T12:08:14.716Z,5.20
2023-09-08T12:10:44.411Z,5.80
2023-09-08T12:13:05.476Z,5.50
2023-09-08T12:15:40.588Z,5.40
2023-09-08T12:18:03.049Z,4.90
2023-09-08T12:20:23.515Z,4.65
2023-09-08T12:22:51.400Z,5.43
2023-09-08T12:25:12.088Z,5.13
2023-09-08T12:27:37.554Z,5.25
2023-09-08T12:30:01.292Z,4.70
2023-09-08T12:32:23.378Z,5.10
2023-09-08T12:34:44.443Z,5.05
2023-09-08T12:37:08.305Z,5.15
2023-09-08T12:39:28.797Z,4.88
2023-09-08T12:41:49.223Z,4.90
2023-09-08T12:44:10.566Z,5.18
2023-09-08T12:46:33.251Z,5.50
2023-09-08T12:48:53.607Z,5.25
2023-09-08T12:51:14.046Z,4.75
2023-09-08T12:53:37.867Z,5.32
2023-09-08T12:55:58.265Z,5.47
2023-09-08T12:58:18.652Z,5.07
2023-09-08T13:00:39.405Z,4.82
2023-09-08T13:03:00.161Z,5.75
2023-09-08T13:05:20.755Z,4.70
2023-09-08T13:07:41.424Z,5.70
2023-09-08T13:10:02.402Z,4.47
2023-09-08T13:12:23.322Z,4.65
2023-09-08T13:14:44.607Z,4.90
2023-09-08T13:17:05.657Z,5.90
2023-09-08T13:19:26.323Z,5.20
2023-09-08T13:21:46.897Z,5.28
2023-09-08T13:24:09.092Z,5.70
2023-09-08T13:26:29.815Z,5.50
2023-09-08T13:28:50.505Z,4.78
2023-09-08T13:31:11.291Z,5.13
2023-09-08T13:33:31.950Z,4.82
2023-09-08T13:35:53.758Z,4.70
2023-09-08T13:38:14.595Z,5.53
2023-09-08T13:40:35.136Z,4.75
2023-09-08T13:42:55.578Z,5.35
2023-09-08T13:45:16.070Z,5.22
2023-09-08T13:47:39.013Z,5.30
2023-09-08T13:50:01.792Z,4.90
2023-09-08T13:52:26.717Z,5.38
2023-09-08T13:54:54.780Z,5.03
2023-09-08T13:57:28.531Z,4.55
2023-09-08T13:59:57.603Z,4.80
2023-09-08T14:04:48.156Z,5.32
2023-09-08T14:09:44.199Z,4.55
2023-09-08T14:14:37.511Z,4.97
2023-09-08T14:16:57.910Z,4.13
2023-09-08T14:19:18.329Z,5.00
2023-09-08T14:21:40.533Z,4.88
2023-09-08T14:24:01.291Z,5.25
2023-09-08T14:26:22.129Z,5.38
2023-09-08T14:28:42.685Z,5.40
2023-09-08T14:31:03.666Z,5.35
2023-09-08T14:33:24.296Z,4.65
2023-09-08T14:35:46.975Z,4.90
2023-09-08T14:38:09.166Z,5.45
2023-09-08T14:40:29.958Z,5.30
2023-09-08T14:42:53.006Z,5.03
2023-09-08T14:45:15.094Z,5.82
2023-09-08T14:47:36.164Z,5.43
2023-09-08T14:49:57.865Z,4.88
2023-09-08T14:52:21.673Z,5.47
2023-09-08T14:54:42.471Z,5.40
2023-09-08T14:57:03.117Z,5.32
2023-09-08T14:59:23.911Z,5.50
2023-09-08T15:01:46.066Z,5.35
2023-09-08T15:04:07.260Z,5.65
2023-09-08T15:06:28.749Z,5.10
2023-09-08T15:08:49.507Z,4.90
2023-09-08T15:11:10.404Z,5.28
2023-09-08T15:13:31.284Z,5.18
2023-09-08T15:15:52.677Z,4.95
2023-09-08T15:18:13.181Z,4.97
2023-09-08T15:20:33.747Z,4.75
2023-09-08T15:22:54.892Z,4.53
2023-09-08T15:25:15.702Z,4.45
2023-09-08T15:27:36.527Z,4.88
2023-09-08T15:29:57.081Z,4.88
2023-09-08T15:32:17.975Z,4.72
2023-09-08T15:34:38.528Z,4.78
2023-09-08T15:36:59.107Z,4.88
2023-09-08T15:39:19.554Z,5.72
2023-09-08T15:41:40.050Z,5.07
2023-09-08T15:44:00.610Z,4.88
2023-09-08T15:46:21.313Z,4.65
2023-09-08T15:48:42.340Z,4.95
2023-09-08T15:51:04.131Z,4.63
2023-09-08T15:53:24.617Z,4.80
2023-09-08T15:55:45.148Z,4.93
2023-09-08T15:58:05.736Z,5.68
2023-09-08T16:00:26.462Z,5.18
2023-09-08T16:02:47.397Z,4.35
2023-09-08T16:05:09.165Z,5.28
2023-09-08T16:07:29.788Z,5.45
2023-09-08T16:09:50.344Z,5.28
2023-09-08T16:12:10.839Z,5.45
2023-09-08T16:14:31.573Z,4.82
2023-09-08T16:16:52.898Z,4.30
2023-09-08T16:19:13.944Z,5.32
2023-09-08T16:21:35.148Z,5.38
2023-09-08T16:23:55.924Z,5.13
2023-09-08T16:26:16.417Z,4.68
2023-09-08T16:28:37.064Z,5.57
2023-09-08T16:31:04.525Z,5.28
2023-09-08T16:33:24.921Z,5.43
2023-09-08T16:35:45.418Z,5.97
2023-09-08T16:38:05.940Z,4.95
2023-09-08T16:40:26.981Z,5.70
2023-09-08T16:42:47.171Z,4.80
2023-09-08T16:45:08.067Z,5.30
2023-09-08T16:47:28.557Z,5.43
2023-09-08T16:49:49.005Z,4.85
2023-09-08T16:52:09.451Z,5.57
2023-09-08T16:54:29.933Z,5.38
2023-09-08T16:56:50.867Z,5.28
2023-09-08T16:59:11.680Z,5.13
2023-09-08T17:01:32.742Z,5.47
2023-09-08T17:03:53.891Z,5.15
2023-09-08T17:06:14.468Z,6.07
2023-09-08T17:08:34.961Z,5.10
2023-09-08T17:10:58.580Z,5.90
2023-09-08T17:13:19.650Z,6.00
2023-09-08T17:15:40.868Z,5.40
2023-09-08T17:18:01.856Z,4.82
2023-09-08T17:20:23.181Z,5.40
2023-09-08T17:22:43.907Z,5.47
2023-09-08T17:25:04.874Z,4.95
2023-09-08T17:27:25.400Z,5.22
2023-09-08T17:29:46.103Z,5.95
2023-09-08T17:32:07.122Z,5.85
2023-09-08T17:34:28.056Z,5.50
2023-09-08T17:36:53.023Z,5.65
2023-09-08T17:39:13.894Z,6.40
2023-09-08T17:41:34.308Z,5.82
2023-09-08T17:43:54.834Z,5.57
2023-09-08T17:46:15.775Z,5.88
2023-09-08T17:48:36.278Z,5.80
2023-09-08T17:50:57.083Z,5.38
2023-09-08T17:53:17.810Z,6.15
2023-09-08T17:55:38.388Z,5.60
2023-09-08T17:57:59.112Z,5.45
2023-09-08T18:00:19.761Z,5.70
2023-09-08T18:02:40.611Z,5.43
2023-09-08T18:05:01.364Z,5.63
2023-09-08T18:07:21.800Z,6.20
2023-09-08T18:09:42.160Z,5.60
2023-09-08T18:12:02.787Z,5.47
2023-09-08T18:14:23.632Z,6.47
2023-09-08T18:16:44.238Z,5.88
2023-09-08T18:19:04.984Z,6.07
2023-09-08T18:21:25.658Z,6.35
2023-09-08T18:23:47.550Z,5.20
2023-09-08T18:26:08.955Z,5.82
2023-09-08T18:28:29.448Z,6.13
2023-09-08T18:30:51.545Z,6.22
2023-09-08T18:33:12.322Z,5.32
2023-09-08T18:35:34.024Z,5.65
2023-09-08T18:37:54.788Z,5.88
2023-09-08T18:40:15.572Z,6.45
2023-09-08T18:42:35.987Z,6.30
2023-09-08T18:44:56.609Z,6.50
2023-09-08T18:47:17.578Z,6.93
2023-09-08T18:49:38.385Z,6.65
2023-09-08T18:51:58.985Z,6.75
2023-09-08T18:54:19.531Z,6.82
2023-09-08T18:56:40.129Z,8.00
2023-09-08T18:59:01.953Z,8.00
2023-09-08T19:01:23.208Z,7.63
2023-09-08T19:03:44.076Z,7.57
2023-09-08T19:06:05.168Z,7.05
2023-09-08T19:08:26.214Z,6.97
2023-09-08T19:10:46.776Z,7.40
2023-09-08T19:13:07.486Z,7.55
2023-09-08T19:15:28.308Z,7.47
2023-09-08T19:17:48.968Z,6.82
2023-09-08T19:20:10.105Z,7.45
2023-09-08T19:22:30.681Z,7.63
2023-09-08T19:24:52.395Z,9.20
2023-09-08T19:27:13.347Z,8.07
2023-09-08T19:29:34.153Z,7.93
2023-09-08T19:31:54.704Z,7.72
2023-09-08T19:34:15.266Z,8.38
2023-09-08T19:36:36.133Z,8.38
2023-09-08T19:38:56.583Z,8.32
2023-09-08T19:41:17.053Z,7.97
2023-09-08T19:43:38.075Z,6.97
2023-09-08T19:46:05.759Z,7.60
2023-09-08T19:48:26.313Z,8.77
2023-09-08T19:50:46.875Z,8.95
2023-09-08T19:53:07.417Z,9.27
2023-09-08T19:55:27.929Z,7.90
2023-09-08T19:57:48.628Z,7.90
2023-09-08T20:00:09.451Z,9.43
2023-09-08T20:02:30.168Z,8.95
2023-09-08T20:04:50.791Z,8.32
2023-09-08T20:07:11.262Z,8.63
2023-09-08T20:09:32.512Z,7.90
2023-09-08T20:11:54.049Z,7.72
2023-09-08T20:14:14.734Z,7.60
2023-09-08T20:16:35.408Z,8.45
2023-09-08T20:18:56.083Z,7.40
2023-09-08T20:21:16.554Z,9.02
2023-09-08T20:23:37.427Z,8.52
2023-09-08T20:25:59.073Z,8.27
2023-09-08T20:28:19.767Z,8.60
2023-09-08T20:30:41.000Z,9.43
2023-09-08T20:33:01.802Z,8.02
2023-09-08T20:35:22.428Z,9.10
2023-09-08T20:37:42.927Z,9.65
2023-09-08T20:40:04.626Z,10.57
2023-09-08T20:42:25.554Z,10.35
2023-09-08T20:44:46.459Z,10.68
2023-09-08T20:47:07.193Z,11.20
2023-09-08T20:49:28.225Z,11.00
2023-09-08T20:51:49.230Z,11.82
2023-09-08T20:54:09.814Z,11.10
2023-09-08T20:56:30.557Z,11.80
2023-09-08T20:58:51.584Z,13.30
2023-09-08T21:01:12.402Z,13.00
2023-09-08T21:03:33.949Z,12.57
2023-09-08T21:05:54.798Z,11.07
2023-09-08T21:08:15.782Z,11.07
2023-09-08T21:10:36.640Z,11.05
2023-09-08T21:12:57.380Z,10.07
2023-09-08T21:15:17.951Z,9.50
2023-09-08T21:17:38.368Z,9.68
2023-09-08T21:20:00.055Z,9.93
2023-09-08T21:22:20.549Z,9.63
2023-09-08T21:24:41.084Z,11.20
2023-09-08T21:27:01.767Z,10.80
2023-09-08T21:29:22.570Z,10.57
2023-09-08T21:31:43.510Z,11.30
2023-09-08T21:34:04.267Z,9.48
2023-09-08T21:36:25.096Z,8.80
2023-09-08T21:38:46.082Z,10.02
2023-09-08T21:41:08.630Z,8.48
2023-09-08T21:43:29.354Z,9.25
2023-09-08T21:45:52.025Z,9.48
2023-09-08T21:48:12.555Z,9.63
2023-09-08T21:50:33.060Z,10.18
2023-09-08T21:52:54.016Z,10.43
2023-09-08T21:55:17.557Z,9.40
2023-09-08T21:57:38.396Z,9.10
2023-09-08T21:59:58.816Z,9.25
2023-09-08T22:02:19.432Z,9.85
2023-09-08T22:04:40.004Z,8.13
2023-09-08T22:07:01.237Z,9.00
2023-09-08T22:09:22.108Z,9.63
2023-09-08T22:11:43.526Z,9.85
2023-09-08T22:14:04.440Z,9.27
2023-09-08T22:16:25.723Z,8.95
2023-09-08T22:18:46.533Z,9.77
2023-09-08T22:21:08.588Z,9.32
2023-09-08T22:23:29.208Z,9.50
2023-09-08T22:25:50.052Z,9.80
2023-09-08T22:28:10.635Z,10.40
2023-09-08T22:30:31.135Z,9.38
2023-09-08T22:32:51.770Z,9.23
2023-09-08T22:35:12.741Z,8.23
2023-09-08T22:37:35.517Z,8.95
2023-09-08T22:39:56.291Z,9.15
2023-09-08T22:42:16.861Z,9.43
2023-09-08T22:44:37.747Z,9.07
2023-09-08T22:46:58.418Z,10.13
2023-09-08T22:49:18.865Z,8.77
2023-09-08T22:51:39.486Z,8.45
2023-09-08T22:54:00.746Z,9.88
2023-09-08T22:56:21.706Z,10.18
2023-09-08T22:58:42.792Z,9.30
2023-09-08T23:01:03.852Z,8.98
2023-09-08T23:03:24.409Z,9.32
2023-09-08T23:05:45.339Z,8.25
2023-09-08T23:08:06.093Z,8.70
2023-09-08T23:10:26.808Z,8.90
2023-09-08T23:12:47.447Z,8.88
2023-09-08T23:15:10.106Z,9.10
2023-09-08T23:17:31.046Z,8.52
2023-09-08T23:19:51.504Z,8.07
2023-09-08T23:22:11.936Z,7.70
2023-09-08T23:24:32.363Z,8.45
2023-09-08T23:26:53.683Z,7.72
2023-09-08T23:29:14.365Z,8.10
2023-09-08T23:31:35.419Z,8.52
2023-09-08T23:33:55.950Z,8.18
2023-09-08T23:36:16.783Z,8.18
2023-09-08T23:38:37.206Z,7.88
2023-09-08T23:40:57.788Z,8.13
2023-09-08T23:43:18.533Z,7.57
2023-09-08T23:45:44.019Z,7.80
2023-09-08T23:48:05.868Z,7.55
2023-09-08T23:50:50.642Z,7.75
2023-09-08T23:53:11.387Z,8.20
2023-09-08T23:55:31.839Z,7.78
2023-09-08T23:57:52.456Z,8.10
